sensor_id;sensor_type;location;lat;lon;timestamp;P1;durP1;ratioP1;P2;durP2;ratioP2
60076;SDS011;45950;45.208;20.374;2023-04-01T00:00:26;8.68;;;3.60;;
60076;SDS011;45950;45.208;20.374;2023-04-01T00:02:53;7.65;;;3.25;;
60076;SDS011;45950;45.208;20.374;2023-04-01T00:05:19;7.47;;;3.42;;
60076;SDS011;45950;45.208;20.374;2023-04-01T00:07:46;5.70;;;2.80;;
60076;SDS011;45950;45.208;20.374;2023-04-01T00:10:13;5.82;;;3.08;;
60076;SDS011;45950;45.208;20.374;2023-04-01T00:12:39;5.38;;;2.85;;
60076;SDS011;45950;45.208;20.374;2023-04-01T00:15:07;6.57;;;3.00;;
60076;SDS011;45950;45.208;20.374;2023-04-01T00:17:35;6.78;;;3.33;;
60076;SDS011;45950;45.208;20.374;2023-04-01T00:20:04;7.45;;;3.70;;
60076;SDS011;45950;45.208;20.374;2023-04-01T00:22:32;7.50;;;3.30;;
60076;SDS011;45950;45.208;20.374;2023-04-01T00:24:59;6.68;;;3.42;;
60076;SDS011;45950;45.208;20.374;2023-04-01T00:27:25;7.72;;;3.28;;
60076;SDS011;45950;45.208;20.374;2023-04-01T00:29:52;6.40;;;3.10;;
60076;SDS011;45950;45.208;20.374;2023-04-01T00:32:18;6.97;;;2.88;;
60076;SDS011;45950;45.208;20.374;2023-04-01T00:34:46;8.65;;;3.30;;
60076;SDS011;45950;45.208;20.374;2023-04-01T00:40:23;7.70;;;3.25;;
60076;SDS011;45950;45.208;20.374;2023-04-01T00:42:50;7.28;;;3.38;;
60076;SDS011;45950;45.208;20.374;2023-04-01T00:45:28;7.72;;;3.25;;
60076;SDS011;45950;45.208;20.374;2023-04-01T00:50:59;12.40;;;5.30;;
60076;SDS011;45950;45.208;20.374;2023-04-01T00:53:26;6.90;;;3.60;;
60076;SDS011;45950;45.208;20.374;2023-04-01T00:55:55;5.85;;;3.10;;
60076;SDS011;45950;45.208;20.374;2023-04-01T00:58:23;8.82;;;4.63;;
60076;SDS011;45950;45.208;20.374;2023-04-01T01:00:51;6.47;;;3.50;;
60076;SDS011;45950;45.208;20.374;2023-04-01T01:03:18;6.30;;;3.75;;
60076;SDS011;45950;45.208;20.374;2023-04-01T01:08:33;8.27;;;4.55;;
60076;SDS011;45950;45.208;20.374;2023-04-01T01:11:03;7.55;;;3.80;;
60076;SDS011;45950;45.208;20.374;2023-04-01T01:13:31;9.73;;;4.10;;
60076;SDS011;45950;45.208;20.374;2023-04-01T01:16:01;7.78;;;4.00;;
60076;SDS011;45950;45.208;20.374;2023-04-01T01:18:32;5.82;;;3.00;;
60076;SDS011;45950;45.208;20.374;2023-04-01T01:26:52;7.72;;;3.10;;
60076;SDS011;45950;45.208;20.374;2023-04-01T01:32:10;5.35;;;3.08;;
60076;SDS011;45950;45.208;20.374;2023-04-01T01:34:40;6.65;;;3.30;;
60076;SDS011;45950;45.208;20.374;2023-04-01T01:37:13;8.07;;;3.20;;
60076;SDS011;45950;45.208;20.374;2023-04-01T01:39:42;6.97;;;3.67;;
60076;SDS011;45950;45.208;20.374;2023-04-01T01:42:11;5.95;;;3.58;;
60076;SDS011;45950;45.208;20.374;2023-04-01T01:44:38;6.57;;;3.67;;
60076;SDS011;45950;45.208;20.374;2023-04-01T01:47:06;7.88;;;3.55;;
60076;SDS011;45950;45.208;20.374;2023-04-01T01:49:33;8.73;;;4.00;;
60076;SDS011;45950;45.208;20.374;2023-04-01T01:52:01;7.70;;;3.42;;
60076;SDS011;45950;45.208;20.374;2023-04-01T01:54:30;6.28;;;3.67;;
60076;SDS011;45950;45.208;20.374;2023-04-01T01:56:59;6.95;;;3.70;;
60076;SDS011;45950;45.208;20.374;2023-04-01T01:59:27;6.30;;;3.35;;
60076;SDS011;45950;45.208;20.374;2023-04-01T02:04:57;10.38;;;5.43;;
60076;SDS011;45950;45.208;20.374;2023-04-01T02:07:25;5.47;;;3.83;;
60076;SDS011;45950;45.208;20.374;2023-04-01T02:09:54;7.68;;;3.95;;
60076;SDS011;45950;45.208;20.374;2023-04-01T02:12:21;8.25;;;3.95;;
60076;SDS011;45950;45.208;20.374;2023-04-01T02:14:49;8.68;;;4.30;;
60076;SDS011;45950;45.208;20.374;2023-04-01T02:20:20;7.25;;;4.18;;
60076;SDS011;45950;45.208;20.374;2023-04-01T02:22:49;8.10;;;4.68;;
60076;SDS011;45950;45.208;20.374;2023-04-01T02:25:18;10.90;;;5.43;;
60076;SDS011;45950;45.208;20.374;2023-04-01T02:27:47;10.82;;;5.70;;
60076;SDS011;45950;45.208;20.374;2023-04-01T02:30:14;9.18;;;5.53;;
60076;SDS011;45950;45.208;20.374;2023-04-01T02:32:41;11.88;;;5.50;;
60076;SDS011;45950;45.208;20.374;2023-04-01T02:35:08;9.00;;;5.40;;
60076;SDS011;45950;45.208;20.374;2023-04-01T02:37:35;11.73;;;5.85;;
60076;SDS011;45950;45.208;20.374;2023-04-01T02:43:07;8.73;;;5.55;;
60076;SDS011;45950;45.208;20.374;2023-04-01T02:45:33;9.52;;;5.75;;
60076;SDS011;45950;45.208;20.374;2023-04-01T02:48:10;17.15;;;7.63;;
60076;SDS011;45950;45.208;20.374;2023-04-01T02:50:37;13.52;;;6.93;;
60076;SDS011;45950;45.208;20.374;2023-04-01T02:53:05;12.50;;;6.00;;
60076;SDS011;45950;45.208;20.374;2023-04-01T02:55:40;10.35;;;6.68;;
60076;SDS011;45950;45.208;20.374;2023-04-01T02:58:08;9.90;;;6.47;;
60076;SDS011;45950;45.208;20.374;2023-04-01T03:00:35;10.52;;;6.13;;
60076;SDS011;45950;45.208;20.374;2023-04-01T03:03:01;12.38;;;7.13;;
60076;SDS011;45950;45.208;20.374;2023-04-01T03:05:28;12.13;;;6.47;;
60076;SDS011;45950;45.208;20.374;2023-04-01T03:07:55;11.85;;;6.75;;
60076;SDS011;45950;45.208;20.374;2023-04-01T03:10:21;11.02;;;6.43;;
60076;SDS011;45950;45.208;20.374;2023-04-01T03:15:36;17.05;;;8.52;;
60076;SDS011;45950;45.208;20.374;2023-04-01T03:18:03;12.13;;;8.02;;
60076;SDS011;45950;45.208;20.374;2023-04-01T03:20:30;25.88;;;17.00;;
60076;SDS011;45950;45.208;20.374;2023-04-01T03:22:57;20.70;;;11.90;;
60076;SDS011;45950;45.208;20.374;2023-04-01T03:25:23;91.05;;;55.30;;
60076;SDS011;45950;45.208;20.374;2023-04-01T03:27:50;76.65;;;45.17;;
60076;SDS011;45950;45.208;20.374;2023-04-01T03:30:16;19.60;;;15.85;;
60076;SDS011;45950;45.208;20.374;2023-04-01T03:32:44;31.92;;;24.05;;
60076;SDS011;45950;45.208;20.374;2023-04-01T03:35:10;25.27;;;14.98;;
60076;SDS011;45950;45.208;20.374;2023-04-01T03:37:37;13.00;;;8.82;;
60076;SDS011;45950;45.208;20.374;2023-04-01T03:40:04;54.97;;;34.72;;
60076;SDS011;45950;45.208;20.374;2023-04-01T03:42:31;25.40;;;17.35;;
60076;SDS011;45950;45.208;20.374;2023-04-01T03:44:57;15.13;;;10.00;;
60076;SDS011;45950;45.208;20.374;2023-04-01T03:47:24;11.30;;;7.38;;
60076;SDS011;45950;45.208;20.374;2023-04-01T03:49:51;16.02;;;9.70;;
60076;SDS011;45950;45.208;20.374;2023-04-01T03:52:18;12.85;;;8.50;;
60076;SDS011;45950;45.208;20.374;2023-04-01T03:54:44;10.25;;;6.65;;
60076;SDS011;45950;45.208;20.374;2023-04-01T03:57:11;19.17;;;13.70;;
60076;SDS011;45950;45.208;20.374;2023-04-01T03:59:37;15.55;;;10.45;;
60076;SDS011;45950;45.208;20.374;2023-04-01T04:02:04;12.57;;;9.20;;
60076;SDS011;45950;45.208;20.374;2023-04-01T04:04:30;8.48;;;6.32;;
60076;SDS011;45950;45.208;20.374;2023-04-01T04:06:58;7.40;;;4.95;;
60076;SDS011;45950;45.208;20.374;2023-04-01T04:09:25;11.32;;;5.72;;
60076;SDS011;45950;45.208;20.374;2023-04-01T04:11:51;8.65;;;5.30;;
60076;SDS011;45950;45.208;20.374;2023-04-01T04:14:19;7.65;;;4.65;;
60076;SDS011;45950;45.208;20.374;2023-04-01T04:16:45;5.55;;;4.25;;
60076;SDS011;45950;45.208;20.374;2023-04-01T04:19:12;9.07;;;4.90;;
60076;SDS011;45950;45.208;20.374;2023-04-01T04:24:44;8.13;;;4.72;;
60076;SDS011;45950;45.208;20.374;2023-04-01T04:27:10;7.72;;;5.13;;
60076;SDS011;45950;45.208;20.374;2023-04-01T04:32:33;6.47;;;4.70;;
60076;SDS011;45950;45.208;20.374;2023-04-01T04:35:00;9.07;;;4.82;;
60076;SDS011;45950;45.208;20.374;2023-04-01T04:37:27;7.35;;;4.75;;
60076;SDS011;45950;45.208;20.374;2023-04-01T04:39:54;13.95;;;6.93;;
60076;SDS011;45950;45.208;20.374;2023-04-01T04:42:21;21.85;;;13.65;;
60076;SDS011;45950;45.208;20.374;2023-04-01T04:44:47;27.65;;;16.25;;
60076;SDS011;45950;45.208;20.374;2023-04-01T04:47:14;27.25;;;18.30;;
60076;SDS011;45950;45.208;20.374;2023-04-01T04:49:40;16.27;;;10.77;;
60076;SDS011;45950;45.208;20.374;2023-04-01T04:52:07;14.65;;;8.30;;
60076;SDS011;45950;45.208;20.374;2023-04-01T04:54:33;12.85;;;7.53;;
60076;SDS011;45950;45.208;20.374;2023-04-01T04:57:01;11.52;;;6.40;;
60076;SDS011;45950;45.208;20.374;2023-04-01T04:59:27;10.77;;;6.00;;
60076;SDS011;45950;45.208;20.374;2023-04-01T05:01:54;55.13;;;29.27;;
60076;SDS011;45950;45.208;20.374;2023-04-01T05:04:20;180.38;;;97.47;;
60076;SDS011;45950;45.208;20.374;2023-04-01T05:06:47;41.45;;;30.90;;
60076;SDS011;45950;45.208;20.374;2023-04-01T05:09:14;56.03;;;49.70;;
60076;SDS011;45950;45.208;20.374;2023-04-01T05:11:40;28.50;;;24.90;;
60076;SDS011;45950;45.208;20.374;2023-04-01T05:16:57;14.25;;;9.88;;
60076;SDS011;45950;45.208;20.374;2023-04-01T05:19:24;37.83;;;22.40;;
60076;SDS011;45950;45.208;20.374;2023-04-01T05:21:50;21.42;;;15.07;;
60076;SDS011;45950;45.208;20.374;2023-04-01T05:24:17;32.22;;;25.10;;
60076;SDS011;45950;45.208;20.374;2023-04-01T05:26:44;45.67;;;28.33;;
60076;SDS011;45950;45.208;20.374;2023-04-01T05:29:10;31.27;;;20.33;;
60076;SDS011;45950;45.208;20.374;2023-04-01T05:34:41;32.03;;;24.65;;
60076;SDS011;45950;45.208;20.374;2023-04-01T05:37:08;23.27;;;16.35;;
60076;SDS011;45950;45.208;20.374;2023-04-01T05:39:35;18.90;;;12.73;;
60076;SDS011;45950;45.208;20.374;2023-04-01T05:42:02;20.13;;;11.80;;
60076;SDS011;45950;45.208;20.374;2023-04-01T05:44:28;18.83;;;11.63;;
60076;SDS011;45950;45.208;20.374;2023-04-01T05:46:55;20.17;;;11.43;;
60076;SDS011;45950;45.208;20.374;2023-04-01T05:49:21;19.50;;;11.48;;
60076;SDS011;45950;45.208;20.374;2023-04-01T05:51:49;18.85;;;12.77;;
60076;SDS011;45950;45.208;20.374;2023-04-01T05:54:16;18.00;;;12.93;;
60076;SDS011;45950;45.208;20.374;2023-04-01T05:56:43;18.23;;;11.88;;
60076;SDS011;45950;45.208;20.374;2023-04-01T05:59:09;19.30;;;10.75;;
60076;SDS011;45950;45.208;20.374;2023-04-01T06:01:36;13.63;;;8.93;;
60076;SDS011;45950;45.208;20.374;2023-04-01T06:04:03;16.17;;;10.15;;
60076;SDS011;45950;45.208;20.374;2023-04-01T06:06:30;11.55;;;9.48;;
60076;SDS011;45950;45.208;20.374;2023-04-01T06:12:10;11.32;;;9.10;;
60076;SDS011;45950;45.208;20.374;2023-04-01T06:14:43;13.30;;;8.40;;
60076;SDS011;45950;45.208;20.374;2023-04-01T06:17:18;15.27;;;8.30;;
60076;SDS011;45950;45.208;20.374;2023-04-01T06:22:26;22.80;;;11.95;;
60076;SDS011;45950;45.208;20.374;2023-04-01T06:24:57;17.70;;;10.80;;
60076;SDS011;45950;45.208;20.374;2023-04-01T06:27:33;12.13;;;8.93;;
60076;SDS011;45950;45.208;20.374;2023-04-01T06:30:05;16.55;;;10.45;;
60076;SDS011;45950;45.208;20.374;2023-04-01T06:32:43;13.15;;;8.90;;
60076;SDS011;45950;45.208;20.374;2023-04-01T06:35:20;10.35;;;7.78;;
60076;SDS011;45950;45.208;20.374;2023-04-01T06:40:45;12.35;;;8.90;;
60076;SDS011;45950;45.208;20.374;2023-04-01T06:43:19;13.50;;;7.68;;
60076;SDS011;45950;45.208;20.374;2023-04-01T06:45:50;12.57;;;8.40;;
60076;SDS011;45950;45.208;20.374;2023-04-01T06:48:25;10.85;;;7.30;;
60076;SDS011;45950;45.208;20.374;2023-04-01T06:50:56;13.10;;;9.30;;
60076;SDS011;45950;45.208;20.374;2023-04-01T06:53:28;12.65;;;8.23;;
60076;SDS011;45950;45.208;20.374;2023-04-01T06:55:59;160.60;;;69.57;;
60076;SDS011;45950;45.208;20.374;2023-04-01T06:58:29;103.13;;;46.72;;
60076;SDS011;45950;45.208;20.374;2023-04-01T07:00:57;54.15;;;27.48;;
60076;SDS011;45950;45.208;20.374;2023-04-01T07:03:26;27.10;;;15.57;;
60076;SDS011;45950;45.208;20.374;2023-04-01T07:05:55;23.77;;;13.15;;
60076;SDS011;45950;45.208;20.374;2023-04-01T07:08:25;18.05;;;11.07;;
60076;SDS011;45950;45.208;20.374;2023-04-01T07:10:54;15.15;;;9.88;;
60076;SDS011;45950;45.208;20.374;2023-04-01T07:13:23;13.82;;;8.65;;
60076;SDS011;45950;45.208;20.374;2023-04-01T07:15:56;15.93;;;9.80;;
60076;SDS011;45950;45.208;20.374;2023-04-01T07:18:28;13.13;;;7.45;;
60076;SDS011;45950;45.208;20.374;2023-04-01T07:20:55;12.70;;;7.32;;
60076;SDS011;45950;45.208;20.374;2023-04-01T07:23:23;12.02;;;8.73;;
60076;SDS011;45950;45.208;20.374;2023-04-01T07:25:52;12.02;;;8.55;;
60076;SDS011;45950;45.208;20.374;2023-04-01T07:28:21;16.40;;;9.80;;
60076;SDS011;45950;45.208;20.374;2023-04-01T07:30:50;13.07;;;10.25;;
60076;SDS011;45950;45.208;20.374;2023-04-01T07:33:21;16.85;;;8.90;;
60076;SDS011;45950;45.208;20.374;2023-04-01T07:35:52;10.75;;;8.35;;
60076;SDS011;45950;45.208;20.374;2023-04-01T07:38:22;13.52;;;8.77;;
60076;SDS011;45950;45.208;20.374;2023-04-01T07:40:52;9.90;;;8.25;;
60076;SDS011;45950;45.208;20.374;2023-04-01T07:43:34;12.52;;;9.20;;
60076;SDS011;45950;45.208;20.374;2023-04-01T07:46:05;13.30;;;8.55;;
60076;SDS011;45950;45.208;20.374;2023-04-01T07:48:38;16.33;;;9.10;;
60076;SDS011;45950;45.208;20.374;2023-04-01T07:51:07;15.68;;;10.30;;
60076;SDS011;45950;45.208;20.374;2023-04-01T07:53:38;16.83;;;10.60;;
60076;SDS011;45950;45.208;20.374;2023-04-01T07:56:07;12.23;;;9.98;;
60076;SDS011;45950;45.208;20.374;2023-04-01T07:58:38;11.27;;;8.10;;
60076;SDS011;45950;45.208;20.374;2023-04-01T08:01:09;16.63;;;8.95;;
60076;SDS011;45950;45.208;20.374;2023-04-01T08:03:47;12.15;;;8.55;;
60076;SDS011;45950;45.208;20.374;2023-04-01T08:06:19;12.55;;;7.88;;
60076;SDS011;45950;45.208;20.374;2023-04-01T08:08:50;8.75;;;7.18;;
60076;SDS011;45950;45.208;20.374;2023-04-01T08:11:21;10.18;;;7.28;;
60076;SDS011;45950;45.208;20.374;2023-04-01T08:13:51;11.57;;;7.88;;
60076;SDS011;45950;45.208;20.374;2023-04-01T08:16:20;13.00;;;8.38;;
60076;SDS011;45950;45.208;20.374;2023-04-01T08:18:53;11.20;;;8.02;;
60076;SDS011;45950;45.208;20.374;2023-04-01T08:21:21;10.60;;;7.60;;
60076;SDS011;45950;45.208;20.374;2023-04-01T08:23:51;10.30;;;8.73;;
60076;SDS011;45950;45.208;20.374;2023-04-01T08:26:19;16.02;;;10.40;;
60076;SDS011;45950;45.208;20.374;2023-04-01T08:28:50;13.57;;;10.30;;
60076;SDS011;45950;45.208;20.374;2023-04-01T08:31:18;11.52;;;8.60;;
60076;SDS011;45950;45.208;20.374;2023-04-01T08:33:49;11.75;;;7.38;;
60076;SDS011;45950;45.208;20.374;2023-04-01T08:36:20;9.77;;;8.40;;
60076;SDS011;45950;45.208;20.374;2023-04-01T08:38:49;10.00;;;7.03;;
60076;SDS011;45950;45.208;20.374;2023-04-01T08:44:28;13.23;;;8.10;;
60076;SDS011;45950;45.208;20.374;2023-04-01T08:47:12;12.35;;;7.63;;
60076;SDS011;45950;45.208;20.374;2023-04-01T08:49:50;11.03;;;7.20;;
60076;SDS011;45950;45.208;20.374;2023-04-01T09:01:01;8.15;;;5.18;;
60076;SDS011;45950;45.208;20.374;2023-04-01T09:03:35;11.00;;;6.07;;
60076;SDS011;45950;45.208;20.374;2023-04-01T09:09:03;8.45;;;5.07;;
60076;SDS011;45950;45.208;20.374;2023-04-01T09:17:41;7.95;;;4.63;;
60076;SDS011;45950;45.208;20.374;2023-04-01T09:20:17;8.80;;;5.43;;
60076;SDS011;45950;45.208;20.374;2023-04-01T09:22:54;9.82;;;5.80;;
60076;SDS011;45950;45.208;20.374;2023-04-01T09:28:38;12.40;;;6.95;;
60076;SDS011;45950;45.208;20.374;2023-04-01T09:31:15;10.65;;;6.47;;
60076;SDS011;45950;45.208;20.374;2023-04-01T09:33:53;10.95;;;6.80;;
60076;SDS011;45950;45.208;20.374;2023-04-01T09:36:31;10.63;;;7.35;;
60076;SDS011;45950;45.208;20.374;2023-04-01T09:38:59;9.35;;;6.38;;
60076;SDS011;45950;45.208;20.374;2023-04-01T09:44:31;9.43;;;5.85;;
60076;SDS011;45950;45.208;20.374;2023-04-01T09:47:01;15.45;;;8.27;;
60076;SDS011;45950;45.208;20.374;2023-04-01T09:49:58;10.25;;;6.30;;
60076;SDS011;45950;45.208;20.374;2023-04-01T09:52:29;8.07;;;5.35;;
60076;SDS011;45950;45.208;20.374;2023-04-01T09:55:00;7.57;;;5.60;;
60076;SDS011;45950;45.208;20.374;2023-04-01T10:09:11;6.32;;;3.38;;
60076;SDS011;45950;45.208;20.374;2023-04-01T10:14:45;4.93;;;2.92;;
60076;SDS011;45950;45.208;20.374;2023-04-01T10:23:17;6.82;;;3.75;;
60076;SDS011;45950;45.208;20.374;2023-04-01T10:25:53;6.97;;;4.13;;
60076;SDS011;45950;45.208;20.374;2023-04-01T10:39:37;5.93;;;3.58;;
60076;SDS011;45950;45.208;20.374;2023-04-01T10:44:58;6.57;;;3.50;;
60076;SDS011;45950;45.208;20.374;2023-04-01T10:47:38;10.35;;;4.70;;
60076;SDS011;45950;45.208;20.374;2023-04-01T10:55:50;6.80;;;3.35;;
60076;SDS011;45950;45.208;20.374;2023-04-01T11:01:22;6.40;;;3.00;;
60076;SDS011;45950;45.208;20.374;2023-04-01T11:04:10;4.78;;;2.95;;
60076;SDS011;45950;45.208;20.374;2023-04-01T11:12:38;6.65;;;2.83;;
60076;SDS011;45950;45.208;20.374;2023-04-01T11:15:22;8.73;;;4.40;;
60076;SDS011;45950;45.208;20.374;2023-04-01T11:18:01;10.63;;;5.43;;
60076;SDS011;45950;45.208;20.374;2023-04-01T11:23:14;5.43;;;2.78;;
60076;SDS011;45950;45.208;20.374;2023-04-01T11:25:50;5.65;;;3.25;;
60076;SDS011;45950;45.208;20.374;2023-04-01T11:28:28;5.53;;;2.88;;
60076;SDS011;45950;45.208;20.374;2023-04-01T11:31:04;4.22;;;2.50;;
60076;SDS011;45950;45.208;20.374;2023-04-01T11:33:38;5.80;;;3.60;;
60076;SDS011;45950;45.208;20.374;2023-04-01T11:36:11;5.68;;;2.75;;
60076;SDS011;45950;45.208;20.374;2023-04-01T11:38:45;3.78;;;2.60;;
60076;SDS011;45950;45.208;20.374;2023-04-01T11:41:19;7.78;;;3.42;;
60076;SDS011;45950;45.208;20.374;2023-04-01T11:43:52;4.93;;;3.13;;
60076;SDS011;45950;45.208;20.374;2023-04-01T11:46:20;4.05;;;2.65;;
60076;SDS011;45950;45.208;20.374;2023-04-01T11:48:53;3.60;;;2.40;;
60076;SDS011;45950;45.208;20.374;2023-04-01T11:54:32;5.85;;;2.58;;
60076;SDS011;45950;45.208;20.374;2023-04-01T11:57:06;4.00;;;2.63;;
60076;SDS011;45950;45.208;20.374;2023-04-01T11:59:42;5.57;;;3.28;;
60076;SDS011;45950;45.208;20.374;2023-04-01T12:02:11;8.77;;;3.10;;
60076;SDS011;45950;45.208;20.374;2023-04-01T12:04:50;4.72;;;3.22;;
60076;SDS011;45950;45.208;20.374;2023-04-01T12:07:21;5.07;;;2.67;;
60076;SDS011;45950;45.208;20.374;2023-04-01T12:09:52;7.13;;;3.20;;
60076;SDS011;45950;45.208;20.374;2023-04-01T12:12:24;6.88;;;3.35;;
60076;SDS011;45950;45.208;20.374;2023-04-01T12:14:54;7.35;;;3.67;;
60076;SDS011;45950;45.208;20.374;2023-04-01T12:17:27;6.30;;;3.38;;
60076;SDS011;45950;45.208;20.374;2023-04-01T12:19:56;4.57;;;2.85;;
60076;SDS011;45950;45.208;20.374;2023-04-01T12:22:28;7.75;;;3.83;;
60076;SDS011;45950;45.208;20.374;2023-04-01T12:25:05;7.05;;;3.65;;
60076;SDS011;45950;45.208;20.374;2023-04-01T12:27:43;5.20;;;3.03;;
60076;SDS011;45950;45.208;20.374;2023-04-01T12:30:24;5.47;;;3.30;;
60076;SDS011;45950;45.208;20.374;2023-04-01T12:35:55;9.35;;;6.40;;
60076;SDS011;45950;45.208;20.374;2023-04-01T12:38:27;7.95;;;5.15;;
60076;SDS011;45950;45.208;20.374;2023-04-01T12:41:02;7.97;;;4.85;;
60076;SDS011;45950;45.208;20.374;2023-04-01T12:46:15;8.02;;;5.57;;
60076;SDS011;45950;45.208;20.374;2023-04-01T12:48:51;10.18;;;7.05;;
60076;SDS011;45950;45.208;20.374;2023-04-01T12:51:28;7.30;;;5.15;;
60076;SDS011;45950;45.208;20.374;2023-04-01T12:54:07;9.20;;;5.43;;
60076;SDS011;45950;45.208;20.374;2023-04-01T12:56:43;10.30;;;6.30;;
60076;SDS011;45950;45.208;20.374;2023-04-01T12:59:18;7.78;;;5.68;;
60076;SDS011;45950;45.208;20.374;2023-04-01T13:02:00;9.15;;;6.10;;
60076;SDS011;45950;45.208;20.374;2023-04-01T13:04:36;7.55;;;4.65;;
60076;SDS011;45950;45.208;20.374;2023-04-01T13:10:01;4.97;;;4.13;;
60076;SDS011;45950;45.208;20.374;2023-04-01T13:15:32;6.07;;;4.75;;
60076;SDS011;45950;45.208;20.374;2023-04-01T13:18:04;6.68;;;4.75;;
60076;SDS011;45950;45.208;20.374;2023-04-01T13:20:36;7.10;;;4.88;;
60076;SDS011;45950;45.208;20.374;2023-04-01T13:23:10;6.75;;;5.20;;
60076;SDS011;45950;45.208;20.374;2023-04-01T13:25:44;12.23;;;5.70;;
60076;SDS011;45950;45.208;20.374;2023-04-01T13:28:15;10.88;;;8.38;;
60076;SDS011;45950;45.208;20.374;2023-04-01T13:30:45;9.30;;;7.65;;
60076;SDS011;45950;45.208;20.374;2023-04-01T13:33:15;9.20;;;7.28;;
60076;SDS011;45950;45.208;20.374;2023-04-01T13:35:44;11.32;;;6.50;;
60076;SDS011;45950;45.208;20.374;2023-04-01T13:41:06;7.35;;;5.57;;
60076;SDS011;45950;45.208;20.374;2023-04-01T13:43:38;6.97;;;4.10;;
60076;SDS011;45950;45.208;20.374;2023-04-01T13:46:15;6.65;;;4.63;;
60076;SDS011;45950;45.208;20.374;2023-04-01T13:48:49;6.10;;;4.00;;
60076;SDS011;45950;45.208;20.374;2023-04-01T13:51:26;8.40;;;5.07;;
60076;SDS011;45950;45.208;20.374;2023-04-01T14:01:56;7.88;;;5.70;;
60076;SDS011;45950;45.208;20.374;2023-04-01T14:04:41;9.60;;;6.53;;
60076;SDS011;45950;45.208;20.374;2023-04-01T14:07:14;10.60;;;6.82;;
60076;SDS011;45950;45.208;20.374;2023-04-01T14:09:49;10.40;;;7.10;;
60076;SDS011;45950;45.208;20.374;2023-04-01T14:12:22;8.57;;;7.35;;
60076;SDS011;45950;45.208;20.374;2023-04-01T14:14:55;9.77;;;6.93;;
60076;SDS011;45950;45.208;20.374;2023-04-01T14:17:30;9.55;;;7.15;;
60076;SDS011;45950;45.208;20.374;2023-04-01T14:20:14;9.27;;;7.28;;
60076;SDS011;45950;45.208;20.374;2023-04-01T14:22:48;8.70;;;5.60;;
60076;SDS011;45950;45.208;20.374;2023-04-01T14:25:33;7.43;;;5.43;;
60076;SDS011;45950;45.208;20.374;2023-04-01T14:28:08;7.55;;;5.20;;
60076;SDS011;45950;45.208;20.374;2023-04-01T14:33:10;9.80;;;7.80;;
60076;SDS011;45950;45.208;20.374;2023-04-01T14:35:41;12.18;;;7.20;;
60076;SDS011;45950;45.208;20.374;2023-04-01T14:38:16;11.68;;;8.55;;
60076;SDS011;45950;45.208;20.374;2023-04-01T14:40:52;13.45;;;7.80;;
60076;SDS011;45950;45.208;20.374;2023-04-01T14:43:22;9.35;;;6.15;;
60076;SDS011;45950;45.208;20.374;2023-04-01T14:46:08;12.10;;;8.57;;
60076;SDS011;45950;45.208;20.374;2023-04-01T14:48:48;8.95;;;6.82;;
60076;SDS011;45950;45.208;20.374;2023-04-01T14:51:16;13.57;;;9.20;;
60076;SDS011;45950;45.208;20.374;2023-04-01T14:53:51;14.07;;;11.05;;
60076;SDS011;45950;45.208;20.374;2023-04-01T14:56:34;15.73;;;9.98;;
60076;SDS011;45950;45.208;20.374;2023-04-01T14:59:01;17.05;;;10.52;;
60076;SDS011;45950;45.208;20.374;2023-04-01T15:01:32;13.35;;;10.52;;
60076;SDS011;45950;45.208;20.374;2023-04-01T15:04:05;13.00;;;9.13;;
60076;SDS011;45950;45.208;20.374;2023-04-01T15:06:40;11.27;;;9.15;;
60076;SDS011;45950;45.208;20.374;2023-04-01T15:09:10;13.65;;;8.80;;
60076;SDS011;45950;45.208;20.374;2023-04-01T15:11:43;13.10;;;8.75;;
60076;SDS011;45950;45.208;20.374;2023-04-01T15:14:29;14.02;;;8.60;;
60076;SDS011;45950;45.208;20.374;2023-04-01T15:17:05;9.95;;;8.07;;
60076;SDS011;45950;45.208;20.374;2023-04-01T15:19:46;10.32;;;7.88;;
60076;SDS011;45950;45.208;20.374;2023-04-01T15:25:10;12.80;;;8.68;;
60076;SDS011;45950;45.208;20.374;2023-04-01T15:27:42;10.20;;;7.32;;
60076;SDS011;45950;45.208;20.374;2023-04-01T15:30:17;9.90;;;7.00;;
60076;SDS011;45950;45.208;20.374;2023-04-01T15:32:47;9.18;;;7.03;;
60076;SDS011;45950;45.208;20.374;2023-04-01T15:35:21;10.30;;;7.00;;
60076;SDS011;45950;45.208;20.374;2023-04-01T15:37:51;10.07;;;6.35;;
60076;SDS011;45950;45.208;20.374;2023-04-01T15:40:20;10.73;;;7.72;;
60076;SDS011;45950;45.208;20.374;2023-04-01T15:42:55;13.30;;;8.30;;
60076;SDS011;45950;45.208;20.374;2023-04-01T15:45:31;10.68;;;6.72;;
60076;SDS011;45950;45.208;20.374;2023-04-01T15:48:01;11.48;;;6.57;;
60076;SDS011;45950;45.208;20.374;2023-04-01T15:50:43;9.60;;;6.82;;
60076;SDS011;45950;45.208;20.374;2023-04-01T15:53:16;10.63;;;6.47;;
60076;SDS011;45950;45.208;20.374;2023-04-01T15:55:45;7.85;;;5.88;;
60076;SDS011;45950;45.208;20.374;2023-04-01T15:58:21;8.60;;;4.85;;
60076;SDS011;45950;45.208;20.374;2023-04-01T16:00:53;8.98;;;5.65;;
60076;SDS011;45950;45.208;20.374;2023-04-01T16:03:28;8.18;;;4.85;;
60076;SDS011;45950;45.208;20.374;2023-04-01T16:06:06;6.13;;;3.88;;
60076;SDS011;45950;45.208;20.374;2023-04-01T16:08:49;11.10;;;4.97;;
60076;SDS011;45950;45.208;20.374;2023-04-01T16:11:22;7.00;;;4.57;;
60076;SDS011;45950;45.208;20.374;2023-04-01T16:13:54;7.38;;;4.28;;
60076;SDS011;45950;45.208;20.374;2023-04-01T16:16:31;8.05;;;4.50;;
60076;SDS011;45950;45.208;20.374;2023-04-01T16:21:56;6.50;;;3.50;;
60076;SDS011;45950;45.208;20.374;2023-04-01T16:24:24;6.45;;;4.05;;
60076;SDS011;45950;45.208;20.374;2023-04-01T16:26:57;7.43;;;4.50;;
60076;SDS011;45950;45.208;20.374;2023-04-01T16:29:28;11.02;;;7.93;;
60076;SDS011;45950;45.208;20.374;2023-04-01T16:31:59;6.55;;;4.40;;
60076;SDS011;45950;45.208;20.374;2023-04-01T16:34:28;5.35;;;4.15;;
60076;SDS011;45950;45.208;20.374;2023-04-01T16:37:00;6.63;;;3.65;;
60076;SDS011;45950;45.208;20.374;2023-04-01T16:39:30;6.78;;;3.42;;
60076;SDS011;45950;45.208;20.374;2023-04-01T16:42:10;5.53;;;3.13;;
60076;SDS011;45950;45.208;20.374;2023-04-01T16:44:44;6.03;;;3.70;;
60076;SDS011;45950;45.208;20.374;2023-04-01T16:47:14;6.40;;;3.33;;
60076;SDS011;45950;45.208;20.374;2023-04-01T16:49:42;5.28;;;3.08;;
60076;SDS011;45950;45.208;20.374;2023-04-01T16:52:16;6.60;;;4.70;;
60076;SDS011;45950;45.208;20.374;2023-04-01T16:54:44;4.95;;;2.55;;
60076;SDS011;45950;45.208;20.374;2023-04-01T16:57:21;5.80;;;2.88;;
60076;SDS011;45950;45.208;20.374;2023-04-01T17:00:02;6.18;;;4.63;;
60076;SDS011;45950;45.208;20.374;2023-04-01T17:02:31;5.75;;;4.50;;
60076;SDS011;45950;45.208;20.374;2023-04-01T17:05:00;7.15;;;5.63;;
60076;SDS011;45950;45.208;20.374;2023-04-01T17:07:31;10.68;;;7.85;;
60076;SDS011;45950;45.208;20.374;2023-04-01T17:12:34;17.42;;;13.63;;
60076;SDS011;45950;45.208;20.374;2023-04-01T17:15:04;8.88;;;6.38;;
60076;SDS011;45950;45.208;20.374;2023-04-01T17:17:38;7.50;;;5.20;;
60076;SDS011;45950;45.208;20.374;2023-04-01T17:23:08;5.90;;;3.97;;
60076;SDS011;45950;45.208;20.374;2023-04-01T17:25:38;7.03;;;5.60;;
60076;SDS011;45950;45.208;20.374;2023-04-01T17:28:14;14.60;;;4.73;;
60076;SDS011;45950;45.208;20.374;2023-04-01T17:30:43;9.15;;;6.40;;
60076;SDS011;45950;45.208;20.374;2023-04-01T17:35:57;7.65;;;5.30;;
60076;SDS011;45950;45.208;20.374;2023-04-01T17:38:37;12.40;;;10.88;;